Time;durP1;ratioP1;P1;durP2;ratioP2;P2;SDS_P1;SDS_P2;PMS_P1;PMS_P2;Temp;Humidity;BMP_temperature;BMP_pressure;BME280_temperature;BME280_humidity;BME280_pressure;Samples;Min_cycle;Max_cycle;Signal;HPM_P1;HPM_P2
2023/12/02 00:00:36;;;;;;;14.63;12.07;;;2.80;70.70;;;;;;10445003;28;20277;-61
2023/12/02 00:05:40;;;;;;;15.13;12.17;;;2.80;70.90;;;;;;10452708;28;20233;-61
2023/12/02 00:10:44;;;;;;;13.47;11.07;;;2.80;70.80;;;;;;10452895;28;20281;-60
2023/12/02 00:15:49;;;;;;;13.53;11.30;;;2.80;75.90;;;;;;10452028;28;20229;-61
2023/12/02 00:20:52;;;;;;;13.67;11.50;;;2.80;71.50;;;;;;10449954;28;20230;-61
2023/12/02 00:25:56;;;;;;;15.33;11.07;;;2.80;71.00;;;;;;10448282;28;20250;-59
2023/12/02 00:31:01;;;;;;;13.33;10.77;;;2.80;70.70;;;;;;10452904;28;20281;-59
2023/12/02 00:36:06;;;;;;;14.53;11.27;;;2.80;70.80;;;;;;10451656;28;20563;-60
2023/12/02 00:41:10;;;;;;;12.67;10.77;;;2.80;70.80;;;;;;10452688;28;20219;-60
2023/12/02 00:46:15;;;;;;;14.17;10.93;;;2.80;70.70;;;;;;10449882;28;20230;-59
2023/12/02 00:51:18;;;;;;;12.97;10.40;;;2.80;70.40;;;;;;10448990;28;20251;-61
2023/12/02 00:56:22;;;;;;;11.20;8.20;;;2.80;70.40;;;;;;10451118;28;20265;-60
2023/12/02 01:01:27;;;;;;;10.40;8.50;;;2.80;69.70;;;;;;10449327;28;20218;-61
2023/12/02 01:06:31;;;;;;;10.43;8.57;;;2.80;70.50;;;;;;10449129;28;20255;-61
2023/12/02 01:11:35;;;;;;;12.13;9.37;;;2.80;69.80;;;;;;10449568;28;20216;-62
2023/12/02 01:16:40;;;;;;;15.53;11.83;;;2.70;70.00;;;;;;10447845;28;20788;-62
2023/12/02 01:21:44;;;;;;;15.20;12.17;;;2.70;70.10;;;;;;10449848;28;20218;-61
2023/12/02 01:26:47;;;;;;;11.37;9.33;;;2.70;69.40;;;;;;10447898;28;20344;-61
2023/12/02 01:31:52;;;;;;;12.33;9.60;;;2.70;70.00;;;;;;10449157;28;20280;-60
2023/12/02 01:36:55;;;;;;;11.20;9.40;;;2.70;69.30;;;;;;10446698;28;20264;-60
2023/12/02 01:41:59;;;;;;;12.63;9.60;;;2.70;69.10;;;;;;10438290;28;20223;-60
2023/12/02 01:47:04;;;;;;;11.20;8.77;;;2.70;69.00;;;;;;10446301;28;20280;-61
2023/12/02 01:52:08;;;;;;;13.77;10.53;;;2.70;68.70;;;;;;10444030;28;20222;-61
2023/12/02 01:57:12;;;;;;;16.20;12.47;;;2.60;68.90;;;;;;10446436;28;20263;-61
2023/12/02 02:02:17;;;;;;;14.97;11.43;;;2.60;68.50;;;;;;10448169;28;20225;-60
2023/12/02 02:07:22;;;;;;;14.63;10.93;;;2.60;68.80;;;;;;10445587;28;20226;-59
2023/12/02 02:12:26;;;;;;;13.83;10.70;;;2.60;68.70;;;;;;10444282;28;20223;-61
2023/12/02 02:17:31;;;;;;;11.03;8.93;;;2.60;69.00;;;;;;10442733;28;20769;-61
2023/12/02 02:22:39;;;;;;;12.87;10.10;;;2.60;68.80;;;;;;10432905;28;20698;-60
2023/12/02 02:27:43;;;;;;;12.10;9.20;;;2.60;68.80;;;;;;10428352;28;20269;-61
2023/12/02 02:32:46;;;;;;;12.17;9.33;;;2.50;68.40;;;;;;10444417;28;20286;-60
2023/12/02 02:37:51;;;;;;;11.70;9.60;;;2.50;68.70;;;;;;10447089;28;20262;-61
2023/12/02 02:42:56;;;;;;;11.67;9.40;;;2.50;68.70;;;;;;10447251;28;20345;-61
2023/12/02 02:47:59;;;;;;;13.37;9.83;;;2.50;69.00;;;;;;10456671;28;20219;-60
2023/12/02 02:53:05;;;;;;;12.23;9.30;;;2.50;68.70;;;;;;10456867;28;20276;-61
2023/12/02 02:58:08;;;;;;;12.80;9.60;;;2.50;68.60;;;;;;10453496;28;20260;-60
2023/12/02 03:03:12;;;;;;;13.93;10.17;;;2.50;68.30;;;;;;10452020;28;20230;-60
2023/12/02 03:08:17;;;;;;;14.53;10.67;;;2.50;68.20;;;;;;10453858;28;20238;-61
2023/12/02 03:13:21;;;;;;;13.77;10.43;;;2.50;68.70;;;;;;10452228;28;20228;-61
2023/12/02 03:18:24;;;;;;;13.87;10.50;;;2.50;68.60;;;;;;10454594;28;20202;-62
2023/12/02 03:23:29;;;;;;;13.87;10.40;;;2.50;68.70;;;;;;10451672;28;20227;-60
2023/12/02 03:28:33;;;;;;;14.63;11.13;;;2.50;68.60;;;;;;10451629;28;20226;-61
2023/12/02 03:33:37;;;;;;;15.00;10.47;;;2.50;68.70;;;;;;10450874;28;20702;-59
2023/12/02 03:38:42;;;;;;;13.17;10.03;;;2.50;69.10;;;;;;10454532;28;20202;-60
2023/12/02 03:43:45;;;;;;;14.53;10.20;;;2.50;68.50;;;;;;10450266;28;20634;-60
2023/12/02 03:49:01;;;;;;;14.23;10.67;;;2.50;68.60;;;;;;10452533;28;20230;-61
2023/12/02 03:54:06;;;;;;;14.33;9.80;;;2.50;68.80;;;;;;10451447;28;21109;-61
2023/12/02 03:59:09;;;;;;;14.80;10.67;;;2.50;68.60;;;;;;10418939;28;20244;-59
2023/12/02 04:04:13;;;;;;;14.30;10.23;;;2.50;68.90;;;;;;10451965;28;20235;-61
2023/12/02 04:09:18;;;;;;;13.67;10.17;;;2.50;68.60;;;;;;10453736;28;20262;-61
2023/12/02 04:14:22;;;;;;;14.50;10.80;;;2.50;68.40;;;;;;10451725;28;20234;-62
2023/12/02 04:19:25;;;;;;;13.17;10.20;;;2.50;68.50;;;;;;10451857;28;20717;-59
2023/12/02 04:24:31;;;;;;;13.37;9.83;;;2.50;68.10;;;;;;10451090;28;20223;-61
2023/12/02 04:29:36;;;;;;;13.10;9.73;;;2.40;68.50;;;;;;10451832;28;20276;-60
2023/12/02 04:34:40;;;;;;;14.80;10.07;;;2.30;68.20;;;;;;10453075;28;20221;-62
2023/12/02 04:39:45;;;;;;;13.93;9.43;;;2.30;68.20;;;;;;10451890;28;20459;-63
2023/12/02 04:44:48;;;;;;;14.80;10.37;;;2.30;68.40;;;;;;10449622;28;20222;-63
2023/12/02 04:49:52;;;;;;;14.50;9.70;;;2.30;68.30;;;;;;10451276;28;20271;-63
2023/12/02 04:54:57;;;;;;;14.77;10.40;;;2.30;68.30;;;;;;10451720;28;20213;-63
2023/12/02 05:00:00;;;;;;;13.70;9.60;;;2.30;68.20;;;;;;10441897;28;20252;-63
2023/12/02 05:05:05;;;;;;;14.33;10.50;;;2.30;68.30;;;;;;10447989;28;20214;-62
2023/12/02 05:10:11;;;;;;;15.80;11.03;;;2.40;69.00;;;;;;10454057;28;20230;-63
2023/12/02 05:15:14;;;;;;;17.20;11.30;;;2.40;68.70;;;;;;10450296;28;20271;-61
2023/12/02 05:20:19;;;;;;;14.13;10.03;;;2.40;69.70;;;;;;10449450;28;20231;-62
2023/12/02 05:25:24;;;;;;;14.00;9.93;;;2.40;68.80;;;;;;10448997;28;20211;-62
2023/12/02 05:30:27;;;;;;;14.53;10.10;;;2.40;68.60;;;;;;10451301;28;20222;-63
2023/12/02 05:35:31;;;;;;;11.47;8.70;;;2.40;69.50;;;;;;10446802;28;20207;-62
2023/12/02 05:40:36;;;;;;;12.70;8.87;;;2.40;68.30;;;;;;10443624;28;20701;-63
2023/12/02 05:45:40;;;;;;;12.52;9.75;;;2.40;68.10;;;;;;10420877;28;20527;-64
2023/12/02 05:50:44;;;;;;;12.33;9.27;;;2.40;68.10;;;;;;10450747;28;20311;-64
2023/12/02 05:55:49;;;;;;;12.47;9.03;;;2.40;67.90;;;;;;10452324;28;20255;-64
2023/12/02 06:00:52;;;;;;;12.23;8.60;;;2.50;68.10;;;;;;10451529;28;20222;-63
2023/12/02 06:05:56;;;;;;;12.30;8.63;;;2.40;68.10;;;;;;10450501;28;20211;-64
2023/12/02 06:11:02;;;;;;;12.63;9.30;;;2.40;67.80;;;;;;10446787;28;20538;-63
2023/12/02 06:16:06;;;;;;;12.27;9.23;;;2.40;68.10;;;;;;10452270;28;20673;-63
2023/12/02 06:21:12;;;;;;;12.50;9.53;;;2.40;68.00;;;;;;10448412;28;20267;-63
2023/12/02 06:26:17;;;;;;;13.83;10.00;;;2.40;67.90;;;;;;10440319;28;20271;-61
2023/12/02 06:31:20;;;;;;;12.47;9.13;;;2.40;67.70;;;;;;10441726;28;20231;-61
2023/12/02 06:36:24;;;;;;;13.20;8.83;;;2.40;68.50;;;;;;10441890;28;20673;-60
2023/12/02 06:41:29;;;;;;;11.73;9.13;;;2.40;69.10;;;;;;10443345;28;20215;-59
2023/12/02 06:46:33;;;;;;;12.43;9.47;;;2.40;68.30;;;;;;10446651;28;20211;-63
2023/12/02 06:51:36;;;;;;;13.47;10.00;;;2.40;68.60;;;;;;10447621;28;20234;-63
2023/12/02 06:56:42;;;;;;;11.63;9.00;;;2.50;69.30;;;;;;10451178;28;20828;-64
2023/12/02 07:01:46;;;;;;;12.07;8.83;;;2.50;68.00;;;;;;10444872;28;20213;-64
2023/12/02 07:06:49;;;;;;;11.30;8.80;;;2.50;67.90;;;;;;10447546;28;20249;-63
2023/12/02 07:11:54;;;;;;;12.43;9.00;;;2.40;67.80;;;;;;10445973;28;20607;-63
2023/12/02 07:16:58;;;;;;;12.13;9.33;;;2.40;68.00;;;;;;10433282;28;20202;-65
2023/12/02 07:22:01;;;;;;;13.37;9.43;;;2.40;68.00;;;;;;10433208;28;20261;-63
2023/12/02 07:27:06;;;;;;;13.40;9.23;;;2.40;68.00;;;;;;10447675;28;20202;-62
2023/12/02 07:32:10;;;;;;;12.87;8.37;;;2.50;68.00;;;;;;10443647;28;20211;-65
2023/12/02 07:37:14;;;;;;;11.30;9.00;;;2.40;68.40;;;;;;10450355;28;20197;-65
2023/12/02 07:42:19;;;;;;;12.90;9.17;;;2.50;67.90;;;;;;10452604;28;20269;-65
2023/12/02 07:47:23;;;;;;;13.07;9.07;;;2.50;67.80;;;;;;10452043;28;20229;-66
2023/12/02 07:52:27;;;;;;;13.70;10.43;;;2.40;67.80;;;;;;10448707;28;20292;-66
2023/12/02 07:57:32;;;;;;;13.00;9.70;;;2.50;67.80;;;;;;10446764;28;20248;-67
2023/12/02 08:02:36;;;;;;;13.03;9.70;;;2.40;67.80;;;;;;10443174;28;20214;-67
2023/12/02 08:07:39;;;;;;;13.80;10.10;;;2.50;68.50;;;;;;10439868;28;20242;-67
2023/12/02 08:12:44;;;;;;;12.83;9.17;;;2.60;68.20;;;;;;10445572;28;20254;-66
2023/12/02 08:17:49;;;;;;;13.23;9.80;;;2.60;68.10;;;;;;10448120;28;20723;-67
2023/12/02 08:22:52;;;;;;;12.93;10.27;;;2.60;67.70;;;;;;10444059;28;20276;-67
2023/12/02 08:27:57;;;;;;;14.47;10.27;;;2.50;67.70;;;;;;10448206;28;20320;-66
2023/12/02 08:33:01;;;;;;;16.13;11.50;;;2.50;67.80;;;;;;10450338;28;20273;-66
2023/12/02 08:38:07;;;;;;;15.20;10.83;;;2.50;67.60;;;;;;10447553;28;20206;-65
2023/12/02 08:43:12;;;;;;;14.43;10.97;;;2.50;67.60;;;;;;10444553;28;20246;-66
2023/12/02 08:48:15;;;;;;;18.40;11.30;;;2.50;67.60;;;;;;10447117;28;20198;-66
2023/12/02 08:53:19;;;;;;;14.03;10.77;;;2.60;68.40;;;;;;10449424;28;20280;-65
2023/12/02 08:58:24;;;;;;;13.30;9.93;;;2.60;67.40;;;;;;10445010;28;20276;-65
2023/12/02 09:03:28;;;;;;;16.00;11.40;;;2.60;68.10;;;;;;10448414;28;20249;-66
2023/12/02 09:08:31;;;;;;;12.90;10.17;;;2.60;67.50;;;;;;10445592;28;20203;-66
2023/12/02 09:13:43;;;;;;;16.77;11.27;;;2.50;67.20;;;;;;10448830;28;20242;-66
2023/12/02 09:18:47;;;;;;;13.23;10.03;;;2.30;67.30;;;;;;10444387;28;20210;-65
2023/12/02 09:23:52;;;;;;;13.57;10.50;;;2.30;67.70;;;;;;10455895;28;20226;-66
2023/12/02 09:28:57;;;;;;;17.23;10.97;;;2.40;67.70;;;;;;10447931;28;20705;-66
2023/12/02 09:34:02;;;;;;;16.37;11.03;;;2.40;67.80;;;;;;10437974;28;20219;-66
2023/12/02 09:39:45;;;;;;;14.60;10.90;;;2.40;67.60;;;;;;10446994;28;20662;-66
2023/12/02 09:44:55;;;;;;;14.33;10.43;;;2.40;68.10;;;;;;10415629;28;20225;-67
2023/12/02 09:50:09;;;;;;;15.77;10.77;;;2.50;67.60;;;;;;10445977;28;20680;-64
2023/12/02 09:55:17;;;;;;;16.40;11.23;;;2.50;67.50;;;;;;10442646;28;20244;-64
2023/12/02 10:00:38;;;;;;;15.87;11.53;;;2.50;67.30;;;;;;10451866;28;20226;-65
2023/12/02 10:05:53;;;;;;;14.23;10.53;;;2.50;67.40;;;;;;10450256;28;20211;-64
2023/12/02 10:11:04;;;;;;;14.40;10.60;;;2.50;67.90;;;;;;10448292;28;20252;-65
2023/12/02 10:16:14;;;;;;;16.57;11.07;;;2.40;67.80;;;;;;10449433;28;20205;-65
2023/12/02 10:21:20;;;;;;;17.77;12.30;;;2.50;67.50;;;;;;10448933;28;20700;-66
2023/12/02 10:26:28;;;;;;;14.63;11.00;;;2.50;67.90;;;;;;10410643;28;20207;-65
2023/12/02 10:31:35;;;;;;;14.50;10.97;;;2.60;69.20;;;;;;10454562;28;20364;-65
2023/12/02 10:36:42;;;;;;;13.13;10.73;;;2.60;67.80;;;;;;10448573;28;20202;-65
2023/12/02 10:41:52;;;;;;;15.37;11.20;;;2.60;67.50;;;;;;10450198;28;20268;-66
2023/12/02 10:46:58;;;;;;;15.00;11.30;;;2.70;67.60;;;;;;10453620;28;20233;-66
2023/12/02 10:52:06;;;;;;;15.43;11.03;;;2.70;68.30;;;;;;10450900;28;20222;-67
2023/12/02 10:57:13;;;;;;;14.40;10.93;;;2.70;67.50;;;;;;10447606;28;20208;-69
2023/12/02 11:02:39;;;;;;;14.07;10.53;;;2.80;68.40;;;;;;10452759;28;20288;-66
2023/12/02 11:07:49;;;;;;;17.00;11.37;;;2.80;67.70;;;;;;10455106;28;20727;-67
2023/12/02 11:12:55;;;;;;;14.10;10.53;;;2.90;67.90;;;;;;10455367;28;20294;-65
2023/12/02 11:18:04;;;;;;;15.20;10.97;;;2.90;67.50;;;;;;10458964;28;20210;-66
2023/12/02 11:23:33;;;;;;;15.27;11.73;;;2.80;67.70;;;;;;10460997;28;20245;-68
2023/12/02 11:28:47;;;;;;;16.80;12.00;;;2.70;67.80;;;;;;10455755;28;20210;-68
2023/12/02 11:34:18;;;;;;;17.83;12.43;;;2.70;67.70;;;;;;10448810;28;20253;-67
2023/12/02 11:39:36;;;;;;;19.00;13.77;;;2.70;67.80;;;;;;10453746;28;20241;-67
2023/12/02 11:44:58;;;;;;;17.60;12.93;;;2.70;67.70;;;;;;10451130;28;20721;-65
2023/12/02 11:50:20;;;;;;;20.10;12.33;;;2.70;67.60;;;;;;10449979;28;20195;-65
2023/12/02 11:55:29;;;;;;;15.73;11.67;;;2.60;67.30;;;;;;10450019;28;20229;-66
2023/12/02 12:00:47;;;;;;;18.33;11.20;;;2.50;67.30;;;;;;10452447;28;20230;-65
2023/12/02 12:06:00;;;;;;;15.10;10.90;;;2.40;67.10;;;;;;10449345;28;20742;-64
2023/12/02 12:11:07;;;;;;;17.47;11.87;;;2.40;67.50;;;;;;10447247;28;20230;-73
2023/12/02 12:16:11;;;;;;;15.77;12.20;;;2.50;68.90;;;;;;10451425;28;20202;-66
2023/12/02 12:21:16;;;;;;;17.93;12.87;;;2.60;69.10;;;;;;10449666;28;20743;-66
2023/12/02 12:26:20;;;;;;;18.43;13.67;;;2.80;68.20;;;;;;10450637;28;20230;-66
2023/12/02 12:31:23;;;;;;;21.47;14.67;;;3.00;71.10;;;;;;10449081;28;20223;-66
2023/12/02 12:36:30;;;;;;;20.13;15.10;;;3.20;69.70;;;;;;10450053;28;20199;-66
2023/12/02 12:41:37;;;;;;;24.03;16.43;;;3.30;68.30;;;;;;10454156;28;20222;-66
2023/12/02 12:46:42;;;;;;;25.47;16.23;;;3.20;67.50;;;;;;10449035;28;20212;-66
2023/12/02 12:51:51;;;;;;;26.00;16.93;;;3.00;67.90;;;;;;10403931;28;20251;-66
2023/12/02 12:56:59;;;;;;;29.70;17.23;;;3.10;68.10;;;;;;10446949;28;20229;-66
2023/12/02 13:02:18;;;;;;;28.10;17.40;;;3.30;67.70;;;;;;10439681;28;20633;-67
2023/12/02 13:07:41;;;;;;;26.87;17.30;;;3.40;68.10;;;;;;10449136;28;20276;-66
2023/12/02 13:12:49;;;;;;;26.60;17.50;;;3.50;67.90;;;;;;10367823;28;20316;-65
2023/12/02 13:17:53;;;;;;;24.80;16.93;;;3.40;67.20;;;;;;10453275;28;20233;-65
2023/12/02 13:23:03;;;;;;;25.30;16.43;;;3.40;67.80;;;;;;10446490;28;20594;-66
2023/12/02 13:28:12;;;;;;;26.33;16.90;;;3.30;68.20;;;;;;10449490;28;20259;-67
2023/12/02 13:33:22;;;;;;;27.50;17.30;;;3.30;67.30;;;;;;10445212;28;20594;-65
2023/12/02 13:38:34;;;;;;;26.27;16.30;;;3.20;68.20;;;;;;10445247;28;20203;-66
2023/12/02 13:43:49;;;;;;;26.57;15.90;;;3.10;68.40;;;;;;10447537;28;20263;-66
2023/12/02 13:49:03;;;;;;;24.67;16.27;;;3.10;68.20;;;;;;10451629;28;20203;-64
2023/12/02 13:54:19;;;;;;;22.77;14.63;;;3.00;67.80;;;;;;10444990;28;20230;-64
2023/12/02 13:59:32;;;;;;;22.90;15.53;;;2.80;67.90;;;;;;10445535;28;20649;-63
2023/12/02 14:04:53;;;;;;;19.43;13.63;;;2.70;68.10;;;;;;10451151;28;20360;-65
2023/12/02 14:09:59;;;;;;;20.20;12.77;;;2.70;69.10;;;;;;10448526;28;20205;-65
2023/12/02 14:15:33;;;;;;;16.07;11.37;;;2.80;68.90;;;;;;10450857;28;20230;-63
2023/12/02 14:20:45;;;;;;;18.00;12.37;;;2.80;69.80;;;;;;10447804;28;20222;-64
2023/12/02 14:26:10;;;;;;;16.20;12.07;;;2.90;69.30;;;;;;10446200;28;20217;-63
2023/12/02 14:31:37;;;;;;;19.53;12.40;;;2.90;69.30;;;;;;10448695;28;20280;-64
2023/12/02 14:37:10;;;;;;;16.17;11.83;;;2.90;70.10;;;;;;10447063;28;20665;-63
2023/12/02 14:42:23;;;;;;;20.53;11.90;;;3.00;69.80;;;;;;10443407;28;20749;-63
2023/12/02 14:47:27;;;;;;;18.20;11.70;;;3.00;69.90;;;;;;10446841;28;20235;-63
2023/12/02 14:52:32;;;;;;;18.20;12.37;;;3.00;69.40;;;;;;10447370;28;20268;-63
2023/12/02 14:57:37;;;;;;;19.37;13.23;;;3.10;70.10;;;;;;10447350;28;20203;-63
2023/12/02 15:02:42;;;;;;;17.57;12.90;;;3.10;70.80;;;;;;10446439;28;20697;-64
2023/12/02 15:07:52;;;;;;;19.03;12.97;;;3.20;70.60;;;;;;10447806;28;20257;-64
2023/12/02 15:12:59;;;;;;;20.13;13.27;;;3.20;70.40;;;;;;10446157;28;20218;-68
2023/12/02 15:18:04;;;;;;;19.10;13.30;;;3.20;70.10;;;;;;10449044;28;20201;-64
2023/12/02 15:23:40;;;;;;;21.57;13.93;;;3.20;70.20;;;;;;10448735;28;20230;-64
2023/12/02 15:29:02;;;;;;;19.47;13.10;;;3.30;71.10;;;;;;10446111;28;20658;-64
2023/12/02 15:34:07;;;;;;;17.70;12.37;;;3.30;70.70;;;;;;10443188;28;20226;-66
2023/12/02 15:39:10;;;;;;;20.67;13.17;;;3.30;72.70;;;;;;10444770;28;20297;-66
2023/12/02 15:44:16;;;;;;;18.10;13.43;;;3.30;71.00;;;;;;10443285;28;20219;-67
2023/12/02 15:49:23;;;;;;;18.40;13.43;;;3.30;71.10;;;;;;10446618;28;20736;-66
2023/12/02 15:54:31;;;;;;;20.70;14.50;;;3.20;71.30;;;;;;10453028;28;20226;-67
2023/12/02 15:59:37;;;;;;;19.93;14.33;;;3.20;70.50;;;;;;10444057;28;20257;-66
2023/12/02 16:04:40;;;;;;;27.90;19.77;;;3.20;70.60;;;;;;10447635;28;20432;-62
2023/12/02 16:09:48;;;;;;;19.40;14.10;;;3.20;70.60;;;;;;10449020;28;20207;-61
2023/12/02 16:14:53;;;;;;;20.20;14.13;;;3.20;70.00;;;;;;10449461;28;20230;-63
2023/12/02 16:19:57;;;;;;;17.87;13.73;;;3.20;69.80;;;;;;10450801;28;20249;-62
2023/12/02 16:25:01;;;;;;;18.93;13.47;;;3.20;70.00;;;;;;10454005;28;20197;-63
2023/12/02 16:30:07;;;;;;;20.73;13.37;;;3.10;70.20;;;;;;10451453;28;20258;-63
2023/12/02 16:35:12;;;;;;;20.50;14.20;;;3.10;70.60;;;;;;10451464;28;20251;-63
2023/12/02 16:40:17;;;;;;;18.43;14.10;;;3.10;72.00;;;;;;10452921;28;20271;-63
2023/12/02 16:45:24;;;;;;;19.07;14.53;;;3.10;70.60;;;;;;10449652;28;20245;-63
2023/12/02 16:50:29;;;;;;;18.20;14.07;;;3.10;71.30;;;;;;10447792;28;20215;-62
2023/12/02 16:55:35;;;;;;;20.90;14.67;;;3.10;71.20;;;;;;10450127;28;20276;-61
2023/12/02 17:00:41;;;;;;;19.27;13.57;;;3.10;71.40;;;;;;10402877;28;20223;-64
2023/12/02 17:06:10;;;;;;;19.33;13.77;;;3.10;72.70;;;;;;10449688;28;20264;-64
2023/12/02 17:11:15;;;;;;;20.70;14.93;;;3.00;70.90;;;;;;10438999;28;20218;-63
2023/12/02 17:16:54;;;;;;;19.43;14.10;;;3.00;72.00;;;;;;10383202;28;20273;-64
2023/12/02 17:22:05;;;;;;;21.43;15.03;;;3.00;71.90;;;;;;10452234;28;20222;-64
2023/12/02 17:27:14;;;;;;;19.37;13.80;;;3.00;71.50;;;;;;10450416;28;20207;-65
2023/12/02 17:32:19;;;;;;;21.93;14.90;;;3.00;71.10;;;;;;10456958;28;20218;-64
2023/12/02 17:37:23;;;;;;;20.97;14.77;;;3.10;71.10;;;;;;10449561;28;20210;-65
2023/12/02 17:42:28;;;;;;;20.27;14.87;;;3.10;71.20;;;;;;10450805;28;20244;-64
2023/12/02 17:47:33;;;;;;;23.87;14.60;;;3.10;71.20;;;;;;10455314;28;20735;-66
2023/12/02 17:52:37;;;;;;;19.80;14.43;;;3.10;72.70;;;;;;10450136;28;20253;-66
2023/12/02 17:57:41;;;;;;;20.80;14.53;;;3.10;72.30;;;;;;10451184;28;20209;-65
2023/12/02 18:02:47;;;;;;;22.42;19.88;;;3.10;72.40;;;;;;10443875;28;20444;-65
2023/12/02 18:07:51;;;;;;;23.90;16.03;;;3.30;71.20;;;;;;10447549;28;20242;-65
2023/12/02 18:12:55;;;;;;;23.73;16.63;;;3.20;71.50;;;;;;10445954;28;20288;-65
2023/12/02 18:18:00;;;;;;;23.60;16.33;;;3.20;71.80;;;;;;10450530;28;20207;-64
2023/12/02 18:23:03;;;;;;;23.70;17.33;;;3.10;73.70;;;;;;10443463;28;20222;-65
2023/12/02 18:28:07;;;;;;;23.70;17.47;;;3.10;72.30;;;;;;10448469;28;20221;-64
2023/12/02 18:33:12;;;;;;;23.57;15.97;;;3.10;72.90;;;;;;10404770;28;20230;-65
2023/12/02 18:38:16;;;;;;;26.67;18.07;;;3.10;73.10;;;;;;10446979;28;20196;-65
2023/12/02 18:43:20;;;;;;;26.83;18.27;;;3.10;73.10;;;;;;10447474;28;20202;-64
2023/12/02 18:48:25;;;;;;;32.33;27.98;;;3.10;73.20;;;;;;10444238;28;20448;-64
2023/12/02 18:53:28;;;;;;;33.90;24.03;;;3.30;72.70;;;;;;10441423;28;20226;-64
2023/12/02 18:58:32;;;;;;;30.43;22.37;;;3.30;72.30;;;;;;10443139;28;20278;-65
2023/12/02 19:03:37;;;;;;;30.17;20.47;;;3.30;72.70;;;;;;10443766;28;20281;-65
2023/12/02 19:08:41;;;;;;;31.17;21.07;;;3.30;73.30;;;;;;10439410;28;20417;-64
2023/12/02 19:13:44;;;;;;;29.77;19.80;;;3.30;73.10;;;;;;10443974;28;20276;-64
2023/12/02 19:18:49;;;;;;;30.83;20.50;;;3.30;74.10;;;;;;10446500;28;20204;-64
2023/12/02 19:23:53;;;;;;;30.13;20.60;;;3.30;74.10;;;;;;10447174;28;20661;-65
2023/12/02 19:28:57;;;;;;;34.60;23.37;;;3.30;73.30;;;;;;10452399;28;20215;-63
2023/12/02 19:34:02;;;;;;;33.83;24.67;;;3.30;75.50;;;;;;10457454;28;20585;-64
2023/12/02 19:39:06;;;;;;;33.47;21.87;;;3.30;74.40;;;;;;10455625;28;20256;-63
2023/12/02 19:44:10;;;;;;;39.60;26.67;;;3.30;75.20;;;;;;10456026;28;20215;-62
2023/12/02 19:49:15;;;;;;;34.63;22.73;;;3.30;74.10;;;;;;10455324;28;20260;-63
2023/12/02 19:54:19;;;;;;;34.47;22.00;;;3.30;74.10;;;;;;10453824;28;20253;-65
2023/12/02 19:59:22;;;;;;;31.17;21.63;;;3.30;74.00;;;;;;10454165;28;20207;-62
2023/12/02 20:04:27;;;;;;;35.27;23.50;;;3.20;74.40;;;;;;10454249;28;20230;-66
2023/12/02 20:09:31;;;;;;;31.83;21.50;;;3.20;74.20;;;;;;10454872;28;20268;-65
2023/12/02 20:14:35;;;;;;;44.07;27.53;;;3.20;74.60;;;;;;10457075;28;20275;-65
2023/12/02 20:19:40;;;;;;;30.60;21.13;;;3.20;75.20;;;;;;10452816;28;20577;-64
2023/12/02 20:24:45;;;;;;;30.07;20.47;;;3.20;74.90;;;;;;10454551;28;20700;-65
2023/12/02 20:29:48;;;;;;;28.13;19.43;;;3.20;76.20;;;;;;10450922;28;20229;-62
2023/12/02 20:34:53;;;;;;;28.80;20.07;;;3.20;76.10;;;;;;10453700;28;20231;-60
2023/12/02 20:39:57;;;;;;;32.57;21.40;;;3.20;76.60;;;;;;10453011;28;20207;-61
2023/12/02 20:45:03;;;;;;;29.57;19.77;;;3.20;75.80;;;;;;10453824;28;20738;-61
2023/12/02 20:50:09;;;;;;;31.85;25.20;;;3.20;75.70;;;;;;10452724;28;20488;-60
2023/12/02 20:55:12;;;;;;;30.97;21.50;;;3.30;76.00;;;;;;10449006;28;20686;-60
2023/12/02 21:00:17;;;;;;;31.93;20.83;;;3.40;77.90;;;;;;10445239;28;20730;-59
2023/12/02 21:05:23;;;;;;;31.10;20.50;;;3.40;78.20;;;;;;10449875;28;20208;-58
2023/12/02 21:10:27;;;;;;;32.37;19.93;;;3.40;78.00;;;;;;10453896;28;20231;-56
2023/12/02 21:15:30;;;;;;;29.47;20.27;;;3.40;77.50;;;;;;10449842;28;20269;-59
2023/12/02 21:20:46;;;;;;;29.80;20.27;;;3.40;77.30;;;;;;10447709;28;20583;-62
2023/12/02 21:25:49;;;;;;;31.27;20.43;;;3.30;77.20;;;;;;10448665;28;20261;-60
2023/12/02 21:30:53;;;;;;;33.00;20.10;;;3.30;78.80;;;;;;10449491;28;20227;-62
2023/12/02 21:35:58;;;;;;;33.07;20.63;;;3.30;77.40;;;;;;10449250;28;20253;-61
2023/12/02 21:41:04;;;;;;;31.13;19.53;;;3.40;78.10;;;;;;10446619;28;20231;-62
2023/12/02 21:46:12;;;;;;;29.70;20.20;;;3.40;77.40;;;;;;10451635;28;20194;-60
2023/12/02 21:51:23;;;;;;;28.57;20.43;;;3.40;77.20;;;;;;10447143;28;20269;-57
2023/12/02 21:56:28;;;;;;;27.67;20.00;;;3.40;78.60;;;;;;10443905;28;20280;-60
2023/12/02 22:01:35;;;;;;;27.87;19.10;;;3.40;78.00;;;;;;10444264;28;20219;-61
2023/12/02 22:06:48;;;;;;;30.77;20.30;;;3.40;77.30;;;;;;10444728;28;20745;-60
2023/12/02 22:11:52;;;;;;;27.27;19.23;;;3.40;77.80;;;;;;10441705;28;20352;-63
2023/12/02 22:16:58;;;;;;;32.17;20.43;;;3.40;77.90;;;;;;10442463;28;20312;-61
2023/12/02 22:22:06;;;;;;;31.77;20.40;;;3.40;77.60;;;;;;10445187;28;20694;-61
2023/12/02 22:27:21;;;;;;;27.90;19.13;;;3.30;77.90;;;;;;10449056;28;20263;-62
2023/12/02 22:32:25;;;;;;;29.43;19.40;;;3.30;77.50;;;;;;10445261;28;20245;-63
2023/12/02 22:37:30;;;;;;;33.20;20.13;;;3.40;77.60;;;;;;10441732;28;20222;-63
2023/12/02 22:42:34;;;;;;;29.97;19.40;;;3.40;77.70;;;;;;10443545;28;20284;-63
2023/12/02 22:47:38;;;;;;;31.20;19.93;;;3.40;79.00;;;;;;10445041;28;20653;-64
2023/12/02 22:52:43;;;;;;;31.00;20.73;;;3.40;78.40;;;;;;10445990;28;20272;-64
2023/12/02 22:57:46;;;;;;;30.97;19.90;;;3.40;78.20;;;;;;10447529;28;20654;-63
2023/12/02 23:02:50;;;;;;;28.67;19.03;;;3.40;79.20;;;;;;10451009;28;20252;-64
2023/12/02 23:07:58;;;;;;;28.63;19.10;;;3.40;78.10;;;;;;10454269;28;20261;-61
2023/12/02 23:13:02;;;;;;;30.53;18.70;;;3.50;79.40;;;;;;10454647;28;20346;-62
2023/12/02 23:18:08;;;;;;;29.23;19.17;;;3.40;78.90;;;;;;10456689;28;20252;-63
2023/12/02 23:23:14;;;;;;;28.27;18.47;;;3.40;80.10;;;;;;10455826;28;20219;-60
2023/12/02 23:28:18;;;;;;;30.30;19.03;;;3.40;80.50;;;;;;10456258;28;20238;-62
2023/12/02 23:33:21;;;;;;;26.30;18.37;;;3.40;78.90;;;;;;10456701;28;20222;-61
2023/12/02 23:38:29;;;;;;;29.40;19.27;;;3.40;80.70;;;;;;10453307;28;20250;-61
2023/12/02 23:43:35;;;;;;;28.57;18.43;;;3.40;80.10;;;;;;10446315;28;20235;-65
2023/12/02 23:48:39;;;;;;;28.10;18.00;;;3.40;79.90;;;;;;10450746;28;20244;-65
2023/12/02 23:53:44;;;;;;;29.37;18.73;;;3.40;81.10;;;;;;10451017;28;20771;-64
2023/12/02 23:58:48;;;;;;;27.70;18.20;;;3.40;80.90;;;;;;10449280;28;20535;-62
